createdAt,value
2023-07-31T00:02:12.211Z,34.85
2023-07-31T00:07:15.049Z,34.81
2023-07-31T00:12:19.209Z,35.12
2023-07-31T00:17:22.540Z,35.10
2023-07-31T00:22:25.382Z,35.34
2023-07-31T00:27:29.636Z,35.15
2023-07-31T00:32:32.599Z,35.64
2023-07-31T00:37:35.534Z,35.37
2023-07-31T00:42:39.779Z,35.52
2023-07-31T00:47:42.782Z,35.09
2023-07-31T00:52:45.682Z,35.58
2023-07-31T00:57:50.357Z,35.02
2023-07-31T01:02:54.887Z,35.34
2023-07-31T01:08:05.701Z,35.46
2023-07-31T01:13:10.338Z,35.03
2023-07-31T01:18:13.275Z,35.23
2023-07-31T01:23:39.160Z,35.19
2023-07-31T01:28:56.371Z,35.60
2023-07-31T01:34:02.527Z,35.40
2023-07-31T01:39:05.901Z,35.37
2023-07-31T01:44:10.136Z,35.28
2023-07-31T01:49:13.118Z,35.27
2023-07-31T01:54:15.963Z,35.65
2023-07-31T01:59:20.175Z,35.26
2023-07-31T02:04:23.064Z,35.15
2023-07-31T02:09:26.034Z,35.56
2023-07-31T02:14:30.305Z,35.16
2023-07-31T02:19:33.266Z,35.18
2023-07-31T02:24:36.101Z,35.34
2023-07-31T02:29:40.315Z,35.05
2023-07-31T02:34:43.536Z,35.47
2023-07-31T02:39:46.482Z,34.88
2023-07-31T02:44:53.109Z,34.88
2023-07-31T02:49:57.046Z,35.08
2023-07-31T02:55:00.148Z,34.93
2023-07-31T03:00:06.965Z,35.29
2023-07-31T03:05:10.162Z,35.46
2023-07-31T03:10:13.166Z,35.61
2023-07-31T03:15:17.573Z,35.28
2023-07-31T03:20:20.530Z,35.76
2023-07-31T03:25:23.397Z,35.67
2023-07-31T03:30:27.735Z,35.72
2023-07-31T03:35:30.582Z,35.89
2023-07-31T03:40:33.429Z,35.46
2023-07-31T03:45:37.745Z,35.60
2023-07-31T03:50:40.597Z,36.05
2023-07-31T03:55:43.427Z,35.78
2023-07-31T04:00:47.660Z,35.52
2023-07-31T04:05:50.524Z,35.92
2023-07-31T04:10:53.381Z,35.53
2023-07-31T04:15:57.628Z,35.50
2023-07-31T04:21:02.269Z,35.94
2023-07-31T04:26:05.346Z,35.96
2023-07-31T04:31:10.034Z,35.68
2023-07-31T04:36:12.958Z,35.49
2023-07-31T04:41:15.823Z,35.92
2023-07-31T04:46:20.096Z,35.59
2023-07-31T04:51:24.176Z,35.41
2023-07-31T04:56:27.362Z,35.34
2023-07-31T05:01:31.588Z,35.32
2023-07-31T05:06:34.874Z,35.88
2023-07-31T05:11:37.743Z,35.63
2023-07-31T05:16:42.237Z,35.59
2023-07-31T05:21:45.341Z,35.48
2023-07-31T05:26:48.204Z,35.83
2023-07-31T05:31:52.492Z,36.04
2023-07-31T05:36:55.443Z,35.74
2023-07-31T05:41:58.314Z,35.83
2023-07-31T05:47:02.577Z,36.04
2023-07-31T05:52:06.185Z,35.97
2023-07-31T05:57:09.128Z,35.84
2023-07-31T06:02:13.357Z,35.95
2023-07-31T06:07:16.225Z,36.29
2023-07-31T06:12:19.962Z,36.24
2023-07-31T06:17:24.320Z,36.57
2023-07-31T06:22:27.348Z,36.95
2023-07-31T06:27:30.506Z,37.11
2023-07-31T06:32:35.924Z,37.11
2023-07-31T06:37:41.171Z,36.96
2023-07-31T06:42:44.131Z,36.97
2023-07-31T06:47:52.568Z,36.77
2023-07-31T06:52:56.900Z,37.28
2023-07-31T06:58:01.161Z,37.06
2023-07-31T07:03:10.974Z,36.94
2023-07-31T07:08:13.965Z,37.10
2023-07-31T07:13:17.182Z,37.12
2023-07-31T07:18:22.033Z,36.76
2023-07-31T07:23:24.918Z,38.15
2023-07-31T07:28:29.563Z,36.81
2023-07-31T07:33:33.867Z,37.10
2023-07-31T07:38:37.082Z,37.24
2023-07-31T07:43:39.963Z,37.40
2023-07-31T07:48:44.223Z,37.78
2023-07-31T07:53:47.129Z,37.98
2023-07-31T07:58:51.297Z,37.77
2023-07-31T08:03:55.585Z,37.96
2023-07-31T08:08:58.554Z,37.72
2023-07-31T08:14:02.581Z,38.23
2023-07-31T08:19:08.750Z,37.18
2023-07-31T08:24:11.690Z,37.30
2023-07-31T08:29:14.527Z,36.97
2023-07-31T08:34:18.752Z,36.22
2023-07-31T08:39:21.615Z,36.15
2023-07-31T08:44:25.662Z,36.19
2023-07-31T08:49:31.523Z,36.05
2023-07-31T08:54:34.566Z,35.38
2023-07-31T08:59:37.573Z,35.11
2023-07-31T09:04:41.844Z,35.44
2023-07-31T09:09:44.866Z,35.43
2023-07-31T09:14:48.313Z,35.66
2023-07-31T09:19:52.572Z,35.49
2023-07-31T09:24:55.487Z,35.22
2023-07-31T09:30:01.081Z,35.09
2023-07-31T09:35:15.694Z,35.43
2023-07-31T09:40:27.857Z,35.20
2023-07-31T09:45:40.733Z,34.94
2023-07-31T09:50:47.175Z,35.00
2023-07-31T09:55:50.174Z,35.29
2023-07-31T10:00:53.108Z,35.51
2023-07-31T10:05:58.266Z,35.45
2023-07-31T10:11:03.634Z,35.75
2023-07-31T10:16:06.698Z,35.70
2023-07-31T10:21:11.520Z,35.68
2023-07-31T10:26:15.440Z,35.63
2023-07-31T10:31:19.035Z,35.48
2023-07-31T10:36:23.753Z,34.85
2023-07-31T10:41:32.062Z,34.93
2023-07-31T10:46:35.118Z,35.27
2023-07-31T10:51:39.409Z,35.42
2023-07-31T10:56:42.594Z,34.77
2023-07-31T11:01:55.835Z,34.97
2023-07-31T11:07:01.626Z,35.32
2023-07-31T11:12:05.013Z,35.80
2023-07-31T11:17:09.108Z,35.20
2023-07-31T11:22:13.619Z,36.00
2023-07-31T11:27:16.470Z,36.10
2023-07-31T11:32:19.476Z,35.79
2023-07-31T11:37:24.398Z,35.60
2023-07-31T11:42:27.317Z,35.77
2023-07-31T11:47:31.738Z,35.39
2023-07-31T11:52:39.649Z,35.48
2023-07-31T11:57:43.416Z,35.84
2023-07-31T12:02:46.439Z,35.47
2023-07-31T12:07:51.693Z,35.35
2023-07-31T12:13:06.034Z,35.11
2023-07-31T12:18:10.767Z,35.07
2023-07-31T12:23:19.417Z,35.03
2023-07-31T12:28:24.971Z,35.17
2023-07-31T12:33:33.172Z,34.64
2023-07-31T12:38:37.458Z,34.46
2023-07-31T12:43:42.273Z,34.23
2023-07-31T12:48:45.248Z,34.17
2023-07-31T12:53:49.518Z,34.73
2023-07-31T12:58:52.350Z,32.85
2023-07-31T13:03:55.359Z,33.26
2023-07-31T13:08:59.630Z,33.92
2023-07-31T13:14:02.647Z,33.83
2023-07-31T13:19:06.466Z,34.31
2023-07-31T13:24:11.072Z,34.58
2023-07-31T13:29:13.943Z,34.10
2023-07-31T13:34:16.901Z,34.21
2023-07-31T13:39:21.103Z,34.01
2023-07-31T13:44:24.008Z,33.79
2023-07-31T13:49:26.886Z,33.40
2023-07-31T13:54:31.609Z,32.60
2023-07-31T13:59:35.003Z,31.69
2023-07-31T14:04:37.926Z,32.68
2023-07-31T14:09:42.191Z,33.04
2023-07-31T14:14:45.045Z,33.01
2023-07-31T14:19:48.058Z,33.15
2023-07-31T14:24:52.384Z,33.61
2023-07-31T14:29:55.331Z,33.51
2023-07-31T14:34:58.359Z,32.91
2023-07-31T14:40:02.629Z,33.29
2023-07-31T14:45:07.437Z,31.62
2023-07-31T14:50:11.422Z,30.60
2023-07-31T14:55:15.920Z,32.60
2023-07-31T15:00:19.065Z,32.64
2023-07-31T15:05:22.745Z,33.03
2023-07-31T15:10:26.970Z,28.94
2023-07-31T15:15:30.161Z,29.63
2023-07-31T15:20:33.675Z,31.46
2023-07-31T15:25:38.348Z,27.95
2023-07-31T15:30:41.277Z,27.01
2023-07-31T15:35:44.236Z,27.13
2023-07-31T15:40:48.864Z,26.81
2023-07-31T15:45:52.135Z,27.01
2023-07-31T15:50:55.033Z,27.49
2023-07-31T15:55:59.883Z,28.96
2023-07-31T16:01:02.866Z,29.40
2023-07-31T16:06:05.752Z,30.15
2023-07-31T16:11:10.094Z,30.40
2023-07-31T16:16:13.008Z,30.52
2023-07-31T16:21:15.930Z,30.55
2023-07-31T16:26:20.199Z,30.44
2023-07-31T16:31:23.104Z,30.57
2023-07-31T16:36:26.097Z,30.81
2023-07-31T16:41:30.543Z,30.76
2023-07-31T16:46:33.391Z,30.77
2023-07-31T16:51:36.295Z,31.12
2023-07-31T17:01:46.588Z,30.79
2023-07-31T17:06:49.621Z,30.77
2023-07-31T17:11:54.289Z,30.22
2023-07-31T17:16:57.163Z,30.41
2023-07-31T17:22:00.070Z,30.42
2023-07-31T17:27:04.766Z,30.84
2023-07-31T17:32:08.266Z,31.38
2023-07-31T17:37:11.139Z,31.59
2023-07-31T17:42:15.504Z,31.85
2023-07-31T17:47:19.958Z,32.22
2023-07-31T17:52:23.376Z,32.39
2023-07-31T17:57:27.552Z,32.53
2023-07-31T18:02:30.872Z,32.34
2023-07-31T18:07:33.881Z,32.45
2023-07-31T18:12:39.324Z,32.48
2023-07-31T18:17:42.469Z,32.97
2023-07-31T18:22:45.320Z,32.71
2023-07-31T18:27:49.578Z,32.77
2023-07-31T18:32:52.566Z,32.98
2023-07-31T18:37:55.747Z,33.05
2023-07-31T18:42:59.979Z,33.02
2023-07-31T18:48:02.986Z,33.15
2023-07-31T18:53:05.863Z,33.29
2023-07-31T18:58:10.505Z,33.37
2023-07-31T19:03:13.623Z,33.39
2023-07-31T19:08:16.633Z,33.79
2023-07-31T19:13:20.815Z,33.90
2023-07-31T19:18:24.230Z,34.17
2023-07-31T19:23:27.220Z,34.35
2023-07-31T19:28:31.699Z,34.82
2023-07-31T19:33:34.640Z,34.86
2023-07-31T19:38:37.466Z,34.93
2023-07-31T19:43:41.719Z,34.96
2023-07-31T19:48:44.704Z,35.02
2023-07-31T19:53:47.556Z,34.93
2023-07-31T19:58:51.765Z,34.92
2023-07-31T20:03:55.623Z,35.29
2023-07-31T20:08:58.535Z,35.31
2023-07-31T20:14:06.551Z,35.11
2023-07-31T20:19:09.865Z,35.26
2023-07-31T20:24:12.919Z,35.03
2023-07-31T20:29:17.727Z,35.39
2023-07-31T20:34:20.587Z,35.35
2023-07-31T20:39:23.454Z,35.40
2023-07-31T20:44:27.673Z,35.64
2023-07-31T20:49:30.541Z,35.03
2023-07-31T20:54:33.492Z,35.28
2023-07-31T20:59:39.192Z,35.21
2023-07-31T21:04:42.037Z,34.97
2023-07-31T21:09:45.438Z,35.34
2023-07-31T21:14:49.624Z,35.15
2023-07-31T21:19:52.469Z,35.12
2023-07-31T21:24:55.465Z,34.98
2023-07-31T21:30:00.580Z,35.06
2023-07-31T21:35:03.731Z,34.91
2023-07-31T21:40:07.539Z,35.01
2023-07-31T21:45:12.097Z,35.25
2023-07-31T21:50:15.011Z,35.17
2023-07-31T21:55:19.121Z,35.45
2023-07-31T22:00:23.483Z,35.11
2023-07-31T22:05:26.370Z,35.27
2023-07-31T22:10:29.337Z,35.46
2023-07-31T22:15:33.560Z,35.18
2023-07-31T22:20:36.396Z,35.22
2023-07-31T22:25:39.253Z,35.61
2023-07-31T22:30:43.515Z,35.41
2023-07-31T22:35:46.421Z,35.21
2023-07-31T22:40:49.327Z,35.36
2023-07-31T22:45:53.645Z,35.25
2023-07-31T22:50:56.583Z,35.73
2023-07-31T22:56:04.557Z,35.55
2023-07-31T23:01:10.057Z,35.37
2023-07-31T23:06:12.891Z,35.82
2023-07-31T23:11:15.780Z,35.53
2023-07-31T23:16:20.096Z,35.49
2023-07-31T23:21:23.011Z,35.35
2023-07-31T23:26:25.948Z,35.46
2023-07-31T23:31:30.249Z,35.32
2023-07-31T23:36:33.293Z,35.40
2023-07-31T23:41:36.140Z,35.12
2023-07-31T23:46:46.992Z,35.41
2023-07-31T23:51:49.915Z,35.50
2023-07-31T23:56:52.926Z,35.34
